createdAt,value
2023-05-01T00:01:44.455Z,37.47
2023-05-01T00:04:11.580Z,37.70
2023-05-01T00:06:38.830Z,37.54
2023-05-01T00:09:05.830Z,37.63
2023-05-01T00:11:32.853Z,37.52
2023-05-01T00:13:59.864Z,37.40
2023-05-01T00:18:53.871Z,37.40
2023-05-01T00:21:20.906Z,37.80
2023-05-01T00:23:47.962Z,37.52
2023-05-01T00:26:14.988Z,37.72
2023-05-01T00:28:42.016Z,37.76
2023-05-01T00:31:09.072Z,37.72
2023-05-01T00:33:36.141Z,37.82
2023-05-01T00:36:03.156Z,37.88
2023-05-01T00:38:30.200Z,37.62
2023-05-01T00:40:57.543Z,38.08
2023-05-01T00:43:24.630Z,37.74
2023-05-01T00:45:51.760Z,37.75
2023-05-01T00:48:18.847Z,38.01
2023-05-01T00:50:45.865Z,37.88
2023-05-01T00:53:12.848Z,38.11
2023-05-01T00:55:39.891Z,38.03
2023-05-01T00:58:06.890Z,37.76
2023-05-01T01:00:33.892Z,38.11
2023-05-01T01:03:01.187Z,38.07
2023-05-01T01:05:28.331Z,38.19
2023-05-01T01:07:55.432Z,38.11
2023-05-01T01:10:22.401Z,38.30
2023-05-01T01:12:49.420Z,38.25
2023-05-01T01:15:16.478Z,38.46
2023-05-01T01:17:43.544Z,38.48
2023-05-01T01:20:10.601Z,38.45
2023-05-01T01:22:37.659Z,38.31
2023-05-01T01:25:04.643Z,38.40
2023-05-01T01:27:31.728Z,38.48
2023-05-01T01:29:58.898Z,38.53
2023-05-01T01:32:26.015Z,38.52
2023-05-01T01:34:53.042Z,38.48
2023-05-01T01:37:20.047Z,38.58
2023-05-01T01:39:47.121Z,38.44
2023-05-01T01:42:14.135Z,38.61
2023-05-01T01:44:41.146Z,38.62
2023-05-01T01:47:08.167Z,38.72
2023-05-01T01:49:35.165Z,38.79
2023-05-01T01:52:02.168Z,38.48
2023-05-01T01:54:29.173Z,38.59
2023-05-01T01:56:56.239Z,38.81
2023-05-01T01:59:23.357Z,38.83
2023-05-01T02:01:50.434Z,38.56
2023-05-01T02:04:17.471Z,38.78
2023-05-01T02:06:44.610Z,38.74
2023-05-01T02:09:11.739Z,39.04
2023-05-01T02:11:38.729Z,38.85
2023-05-01T02:14:05.750Z,39.11
2023-05-01T02:16:32.899Z,38.96
2023-05-01T02:18:59.988Z,39.15
2023-05-01T02:21:26.985Z,39.22
2023-05-01T02:23:53.969Z,39.10
2023-05-01T02:26:20.973Z,38.90
2023-05-01T02:28:48.001Z,39.02
2023-05-01T02:31:15.076Z,39.07
2023-05-01T02:33:42.137Z,39.05
2023-05-01T02:36:09.196Z,39.00
2023-05-01T02:38:36.197Z,39.12
2023-05-01T02:41:03.199Z,39.29
2023-05-01T02:43:30.221Z,39.30
2023-05-01T02:45:57.262Z,39.28
2023-05-01T02:48:24.338Z,39.15
2023-05-01T02:50:51.374Z,39.39
2023-05-01T02:53:18.433Z,39.40
2023-05-01T02:55:45.425Z,39.42
2023-05-01T02:58:12.425Z,39.36
2023-05-01T03:00:39.471Z,39.25
2023-05-01T03:03:06.653Z,39.38
2023-05-01T03:05:33.702Z,39.32
2023-05-01T03:08:00.744Z,39.43
2023-05-01T03:10:27.795Z,39.47
2023-05-01T03:12:54.811Z,39.54
2023-05-01T03:15:21.864Z,39.46
2023-05-01T03:17:48.974Z,39.35
2023-05-01T03:20:16.003Z,39.58
2023-05-01T03:22:43.052Z,39.38
2023-05-01T03:25:10.068Z,39.49
2023-05-01T03:27:37.078Z,39.50
2023-05-01T03:30:04.125Z,39.29
2023-05-01T03:32:31.177Z,39.45
2023-05-01T03:34:58.267Z,39.48
2023-05-01T03:37:25.284Z,39.45
2023-05-01T03:39:52.300Z,39.51
2023-05-01T03:42:19.323Z,39.68
2023-05-01T03:44:46.347Z,39.64
2023-05-01T03:47:13.348Z,39.64
2023-05-01T03:49:40.363Z,39.75
2023-05-01T03:52:07.386Z,39.57
2023-05-01T03:54:34.405Z,39.42
2023-05-01T03:57:01.451Z,39.68
2023-05-01T03:59:28.442Z,39.58
2023-05-01T04:01:55.551Z,39.76
2023-05-01T04:04:22.647Z,39.63
2023-05-01T04:06:49.808Z,39.79
2023-05-01T04:09:16.958Z,39.85
2023-05-01T04:11:43.969Z,39.75
2023-05-01T04:14:11.062Z,39.84
2023-05-01T04:16:38.269Z,39.83
2023-05-01T04:19:05.313Z,39.75
2023-05-01T04:21:32.371Z,39.72
2023-05-01T04:23:59.417Z,39.96
2023-05-01T04:26:26.445Z,39.80
2023-05-01T04:28:53.959Z,39.89
2023-05-01T04:31:21.014Z,39.97
2023-05-01T04:33:48.053Z,39.92
2023-05-01T04:36:15.102Z,39.88
2023-05-01T04:38:42.126Z,39.95
2023-05-01T04:41:09.133Z,39.90
2023-05-01T04:43:36.130Z,39.88
2023-05-01T04:46:03.165Z,40.17
2023-05-01T04:48:30.197Z,40.10
2023-05-01T04:50:57.210Z,40.36
2023-05-01T04:53:24.311Z,40.24
2023-05-01T04:55:51.323Z,40.38
2023-05-01T04:58:18.370Z,40.40
2023-05-01T05:00:45.437Z,40.46
2023-05-01T05:03:12.555Z,40.50
2023-05-01T05:05:39.618Z,40.67
2023-05-01T05:08:06.652Z,40.77
2023-05-01T05:10:33.766Z,40.70
2023-05-01T05:13:00.815Z,40.50
2023-05-01T05:15:27.864Z,40.75
2023-05-01T05:17:56.568Z,40.67
2023-05-01T05:20:23.861Z,40.75
2023-05-01T05:22:50.878Z,40.87
2023-05-01T05:25:18.280Z,40.71
2023-05-01T05:27:45.269Z,40.85
2023-05-01T05:30:12.292Z,41.00
2023-05-01T05:32:39.354Z,40.89
2023-05-01T05:35:06.393Z,40.77
2023-05-01T05:37:33.436Z,41.19
2023-05-01T05:40:00.464Z,41.03
2023-05-01T05:42:27.538Z,41.21
2023-05-01T05:44:54.599Z,41.12
2023-05-01T05:47:24.635Z,41.04
2023-05-01T05:49:51.703Z,41.08
2023-05-01T05:52:18.724Z,41.18
2023-05-01T05:54:45.762Z,41.26
2023-05-01T05:57:12.782Z,41.31
2023-05-01T05:59:40.272Z,41.38
2023-05-01T06:02:10.268Z,41.35
2023-05-01T06:04:37.309Z,41.42
2023-05-01T06:07:06.355Z,41.63
2023-05-01T06:09:33.434Z,41.55
2023-05-01T06:12:00.495Z,41.58
2023-05-01T06:14:27.516Z,41.63
2023-05-01T06:16:54.621Z,41.60
2023-05-01T06:19:21.714Z,41.80
2023-05-01T06:21:48.888Z,41.81
2023-05-01T06:24:16.009Z,41.66
2023-05-01T06:26:43.060Z,41.68
2023-05-01T06:29:10.423Z,41.63
2023-05-01T06:31:37.454Z,41.43
2023-05-01T06:34:04.494Z,41.57
2023-05-01T06:36:31.599Z,41.30
2023-05-01T06:38:58.662Z,41.21
2023-05-01T06:41:25.701Z,41.16
2023-05-01T06:43:52.752Z,41.01
2023-05-01T06:46:19.835Z,41.00
2023-05-01T06:48:46.875Z,41.37
2023-05-01T06:51:13.892Z,40.82
2023-05-01T06:53:40.929Z,41.04
2023-05-01T06:56:07.958Z,40.72
2023-05-01T06:58:35.015Z,40.43
2023-05-01T07:01:02.110Z,40.43
2023-05-01T07:03:29.137Z,39.61
2023-05-01T07:05:56.334Z,39.64
2023-05-01T07:08:23.491Z,39.35
2023-05-01T07:10:50.534Z,39.63
2023-05-01T07:13:17.584Z,39.29
2023-05-01T07:15:44.606Z,38.87
2023-05-01T07:18:11.714Z,38.42
2023-05-01T07:20:38.807Z,38.71
2023-05-01T07:23:07.403Z,38.22
2023-05-01T07:25:34.784Z,38.04
2023-05-01T07:28:01.887Z,37.76
2023-05-01T07:30:29.173Z,37.83
2023-05-01T07:32:56.284Z,37.24
2023-05-01T07:35:23.371Z,37.28
2023-05-01T07:37:50.447Z,37.29
2023-05-01T07:40:17.495Z,36.43
2023-05-01T07:42:44.547Z,36.40
2023-05-01T07:45:11.683Z,36.44
2023-05-01T07:47:38.736Z,35.75
2023-05-01T07:50:05.783Z,35.14
2023-05-01T07:52:32.823Z,34.94
2023-05-01T07:54:59.838Z,35.40
2023-05-01T07:57:26.917Z,35.29
2023-05-01T07:59:54.101Z,34.79
2023-05-01T08:02:21.282Z,35.20
2023-05-01T08:04:48.807Z,34.09
2023-05-01T08:07:15.821Z,34.19
2023-05-01T08:09:42.840Z,33.93
2023-05-01T08:12:09.889Z,32.97
2023-05-01T08:14:36.894Z,33.42
2023-05-01T08:17:03.990Z,33.52
2023-05-01T08:19:30.991Z,32.74
2023-05-01T08:21:58.031Z,32.48
2023-05-01T08:24:25.094Z,32.82
2023-05-01T08:26:52.113Z,32.46
2023-05-01T08:29:19.154Z,32.51
2023-05-01T08:31:46.304Z,32.37
2023-05-01T08:34:13.462Z,31.98
2023-05-01T08:36:40.502Z,31.73
2023-05-01T08:39:07.823Z,31.74
2023-05-01T08:41:34.893Z,32.14
2023-05-01T08:44:01.903Z,32.33
2023-05-01T08:46:28.955Z,32.72
2023-05-01T08:48:56.074Z,32.13
2023-05-01T08:51:23.181Z,32.01
2023-05-01T08:53:50.241Z,32.19
2023-05-01T08:56:17.264Z,31.46
2023-05-01T08:58:44.310Z,31.88
2023-05-01T09:01:11.330Z,31.74
2023-05-01T09:03:38.729Z,31.54
2023-05-01T09:06:05.748Z,31.57
2023-05-01T09:08:32.797Z,32.03
2023-05-01T09:10:59.907Z,31.48
2023-05-01T09:13:26.984Z,32.00
2023-05-01T09:15:54.083Z,32.26
2023-05-01T09:18:21.145Z,32.21
2023-05-01T09:20:48.153Z,32.12
2023-05-01T09:23:15.182Z,32.56
2023-05-01T09:25:42.226Z,31.83
2023-05-01T09:28:09.261Z,32.23
2023-05-01T09:30:36.297Z,32.79
2023-05-01T09:33:03.387Z,32.93
2023-05-01T09:35:30.431Z,32.33
2023-05-01T09:37:57.435Z,32.36
2023-05-01T09:40:27.100Z,32.32
2023-05-01T09:42:54.126Z,32.44
2023-05-01T09:45:21.140Z,32.38
2023-05-01T09:47:48.251Z,32.03
2023-05-01T09:50:15.352Z,32.23
2023-05-01T09:52:42.389Z,31.76
2023-05-01T09:55:09.456Z,31.89
2023-05-01T09:57:36.518Z,31.99
2023-05-01T10:00:03.574Z,31.66
2023-05-01T10:02:30.717Z,31.96
2023-05-01T10:04:57.944Z,31.66
2023-05-01T10:07:24.957Z,31.35
2023-05-01T10:09:51.992Z,31.67
2023-05-01T10:12:19.017Z,31.71
2023-05-01T10:14:46.082Z,31.99
2023-05-01T10:17:13.170Z,32.26
2023-05-01T10:19:40.233Z,32.16
2023-05-01T10:22:07.259Z,32.00
2023-05-01T10:24:34.286Z,32.33
2023-05-01T10:27:01.305Z,32.42
2023-05-01T10:29:28.320Z,32.25
2023-05-01T10:31:55.469Z,31.50
2023-05-01T10:34:22.539Z,31.68
2023-05-01T10:36:49.571Z,31.74
2023-05-01T10:39:16.580Z,31.29
2023-05-01T10:41:43.615Z,31.51
2023-05-01T10:44:10.643Z,31.56
2023-05-01T10:46:37.716Z,31.96
2023-05-01T10:49:04.803Z,32.47
2023-05-01T10:51:31.884Z,32.45
2023-05-01T10:53:58.893Z,32.42
2023-05-01T10:56:25.893Z,32.80
2023-05-01T10:58:53.164Z,32.22
2023-05-01T11:01:20.232Z,32.34
2023-05-01T11:03:47.278Z,32.44
2023-05-01T11:06:14.486Z,32.87
2023-05-01T11:08:41.657Z,32.43
2023-05-01T11:11:08.700Z,32.66
2023-05-01T11:13:35.925Z,32.63
2023-05-01T11:16:03.024Z,33.01
2023-05-01T11:18:30.116Z,33.06
2023-05-01T11:20:57.164Z,33.01
2023-05-01T11:23:24.204Z,32.92
2023-05-01T11:25:51.315Z,32.76
2023-05-01T11:28:18.424Z,32.49
2023-05-01T11:30:45.491Z,32.95
2023-05-01T11:33:12.646Z,32.38
2023-05-01T11:35:39.728Z,32.68
2023-05-01T11:38:06.745Z,33.08
2023-05-01T11:40:33.787Z,32.75
2023-05-01T11:43:00.791Z,32.57
2023-05-01T11:45:27.858Z,32.79
2023-05-01T11:47:54.898Z,32.72
2023-05-01T11:50:22.054Z,32.32
2023-05-01T11:52:49.156Z,32.44
2023-05-01T11:55:16.158Z,32.12
2023-05-01T11:57:43.147Z,32.60
2023-05-01T12:00:10.392Z,32.39
2023-05-01T12:02:37.548Z,31.59
2023-05-01T12:05:04.906Z,31.54
2023-05-01T12:07:32.351Z,30.84
2023-05-01T12:09:59.378Z,30.18
2023-05-01T12:12:26.444Z,30.47
2023-05-01T12:14:53.491Z,31.13
2023-05-01T12:17:20.573Z,30.54
2023-05-01T12:19:47.681Z,31.03
2023-05-01T12:22:14.682Z,30.81
2023-05-01T12:24:41.719Z,30.84
2023-05-01T12:27:08.774Z,30.26
2023-05-01T12:29:35.807Z,30.11
2023-05-01T12:32:02.941Z,30.70
2023-05-01T12:34:30.108Z,31.29
2023-05-01T12:36:57.213Z,30.83
2023-05-01T12:39:24.236Z,31.03
2023-05-01T12:41:51.285Z,31.32
2023-05-01T12:44:18.296Z,30.59
2023-05-01T12:46:45.371Z,30.83
2023-05-01T12:49:12.433Z,30.20
2023-05-01T12:51:39.478Z,30.79
2023-05-01T12:54:06.512Z,30.33
2023-05-01T12:56:33.548Z,30.48
2023-05-01T12:59:00.564Z,30.25
2023-05-01T13:01:27.647Z,30.19
2023-05-01T13:03:55.233Z,30.64
2023-05-01T13:06:22.397Z,30.36
2023-05-01T13:08:49.485Z,30.50
2023-05-01T13:11:16.510Z,30.68
2023-05-01T13:13:43.530Z,30.71
2023-05-01T13:16:10.647Z,30.80
2023-05-01T13:18:37.718Z,30.86
2023-05-01T13:21:04.745Z,30.42
2023-05-01T13:23:31.799Z,30.28
2023-05-01T13:25:58.803Z,30.67
2023-05-01T13:28:25.928Z,31.39
2023-05-01T13:30:52.961Z,31.29
2023-05-01T13:33:19.982Z,32.26
2023-05-01T13:35:47.021Z,32.74
2023-05-01T13:38:14.084Z,32.53
2023-05-01T13:40:41.122Z,33.12
2023-05-01T13:43:08.147Z,33.56
2023-05-01T13:45:35.204Z,33.66
2023-05-01T13:48:02.283Z,33.84
2023-05-01T13:50:29.560Z,34.26
2023-05-01T13:52:56.591Z,34.31
2023-05-01T13:55:23.596Z,34.31
2023-05-01T13:57:50.654Z,34.44
2023-05-01T14:00:17.944Z,35.47
2023-05-01T14:02:45.561Z,36.13
2023-05-01T14:05:12.658Z,36.02
2023-05-01T14:07:39.704Z,36.93
2023-05-01T14:10:06.724Z,37.11
2023-05-01T14:12:33.723Z,37.39
2023-05-01T14:15:01.207Z,38.10
2023-05-01T14:17:28.906Z,38.40
2023-05-01T14:19:56.280Z,38.40
2023-05-01T14:22:23.325Z,39.33
2023-05-01T14:24:50.394Z,39.07
2023-05-01T14:27:17.427Z,39.26
2023-05-01T14:29:44.460Z,39.84
2023-05-01T14:32:11.525Z,40.11
2023-05-01T14:34:38.553Z,40.19
2023-05-01T14:37:05.581Z,40.73
2023-05-01T14:39:32.658Z,41.15
2023-05-01T14:41:59.687Z,41.08
2023-05-01T14:44:26.692Z,41.43
2023-05-01T14:46:53.940Z,42.24
2023-05-01T14:49:21.153Z,42.34
2023-05-01T14:51:48.210Z,42.33
2023-05-01T14:54:15.292Z,42.63
2023-05-01T14:56:42.334Z,42.48
2023-05-01T14:59:09.388Z,42.12
2023-05-01T15:01:36.461Z,41.99
2023-05-01T15:04:04.169Z,41.80
2023-05-01T15:06:31.254Z,42.53
2023-05-01T15:08:58.324Z,41.73
2023-05-01T15:11:25.352Z,41.56
2023-05-01T15:13:52.456Z,41.87
2023-05-01T15:16:19.529Z,41.92
2023-05-01T15:18:46.565Z,42.26
2023-05-01T15:21:13.603Z,42.20
2023-05-01T15:23:40.619Z,41.97
2023-05-01T15:26:07.631Z,42.33
2023-05-01T15:28:34.649Z,42.37
2023-05-01T15:31:02.029Z,42.19
2023-05-01T15:33:29.069Z,42.67
2023-05-01T15:35:56.190Z,42.53
2023-05-01T15:38:23.198Z,42.56
2023-05-01T15:40:50.326Z,42.58
2023-05-01T15:43:17.411Z,42.74
2023-05-01T15:45:44.534Z,42.15
2023-05-01T15:48:11.747Z,42.39
2023-05-01T15:50:38.862Z,41.83
2023-05-01T15:53:05.912Z,42.12
2023-05-01T15:55:32.938Z,42.18
2023-05-01T15:57:59.972Z,42.21
2023-05-01T16:00:27.018Z,41.89
2023-05-01T16:02:54.184Z,41.96
2023-05-01T16:05:21.256Z,42.08
2023-05-01T16:07:48.293Z,41.60
2023-05-01T16:10:15.340Z,41.87
2023-05-01T16:12:42.419Z,41.66
2023-05-01T16:15:09.453Z,42.06
2023-05-01T16:17:36.569Z,42.15
2023-05-01T16:20:03.775Z,42.03
2023-05-01T16:22:30.871Z,42.57
2023-05-01T16:24:57.909Z,42.47
2023-05-01T16:27:24.965Z,43.12
2023-05-01T16:29:51.967Z,43.05
2023-05-01T16:32:19.015Z,42.86
2023-05-01T16:34:46.052Z,43.23
2023-05-01T16:37:13.078Z,42.68
2023-05-01T16:39:40.143Z,43.01
2023-05-01T16:42:07.162Z,42.93
2023-05-01T16:44:34.155Z,42.46
2023-05-01T16:47:01.189Z,42.73
2023-05-01T16:49:28.224Z,42.99
2023-05-01T16:51:55.298Z,42.42
2023-05-01T16:54:22.320Z,42.80
2023-05-01T16:56:49.388Z,42.59
2023-05-01T16:59:16.435Z,42.70
2023-05-01T17:01:43.941Z,42.47
2023-05-01T17:04:11.091Z,42.74
2023-05-01T17:06:38.260Z,42.77
2023-05-01T17:09:05.338Z,42.45
2023-05-01T17:11:32.343Z,42.78
2023-05-01T17:13:59.363Z,42.63
2023-05-01T17:16:26.460Z,42.38
2023-05-01T17:18:53.506Z,42.23
2023-05-01T17:21:20.530Z,42.28
2023-05-01T17:23:47.559Z,42.10
2023-05-01T17:26:14.599Z,41.86
2023-05-01T17:28:41.632Z,41.89
2023-05-01T17:31:08.634Z,41.81
2023-05-01T17:33:35.734Z,41.82
2023-05-01T17:36:02.866Z,41.61
2023-05-01T17:38:29.907Z,41.32
2023-05-01T17:40:56.925Z,41.14
2023-05-01T17:43:23.918Z,40.43
2023-05-01T17:45:50.945Z,40.22
2023-05-01T17:48:18.016Z,40.23
2023-05-01T17:50:45.056Z,39.97
2023-05-01T17:53:12.094Z,39.70
2023-05-01T17:55:39.160Z,39.28
2023-05-01T17:58:06.189Z,38.96
2023-05-01T18:00:33.247Z,39.25
2023-05-01T18:03:00.411Z,38.50
2023-05-01T18:05:27.717Z,38.22
2023-05-01T18:07:54.807Z,38.55
2023-05-01T18:10:21.832Z,37.78
2023-05-01T18:12:48.903Z,37.83
2023-05-01T18:15:21.649Z,37.32
2023-05-01T18:17:49.865Z,37.44
2023-05-01T18:20:16.982Z,37.38
2023-05-01T18:22:44.045Z,37.15
2023-05-01T18:25:11.115Z,37.18
2023-05-01T18:27:38.125Z,36.97
2023-05-01T18:30:05.182Z,36.54
2023-05-01T18:32:46.265Z,36.65
2023-05-01T18:35:14.372Z,36.56
2023-05-01T18:37:41.409Z,36.66
2023-05-01T18:40:08.388Z,36.12
2023-05-01T18:42:35.385Z,36.36
2023-05-01T18:45:02.405Z,36.13
2023-05-01T18:47:29.550Z,36.22
2023-05-01T18:49:56.663Z,36.03
2023-05-01T18:52:23.704Z,36.38
2023-05-01T18:54:50.865Z,36.15
2023-05-01T18:57:17.892Z,35.96
2023-05-01T18:59:45.082Z,36.05
2023-05-01T19:02:12.305Z,36.24
2023-05-01T19:04:49.433Z,35.83
2023-05-01T19:07:23.528Z,36.01
2023-05-01T19:09:50.610Z,35.96
2023-05-01T19:12:17.708Z,36.03
2023-05-01T19:14:44.750Z,36.08
2023-05-01T19:17:11.778Z,35.94
2023-05-01T19:19:38.768Z,36.32
2023-05-01T19:22:05.800Z,36.03
2023-05-01T19:24:32.851Z,36.13
2023-05-01T19:26:59.862Z,36.04
2023-05-01T19:29:26.850Z,35.88
2023-05-01T19:31:53.911Z,36.04
2023-05-01T19:34:20.968Z,36.36
2023-05-01T19:36:48.009Z,36.21
2023-05-01T19:39:15.024Z,36.24
2023-05-01T19:41:42.046Z,36.26
2023-05-01T19:44:09.069Z,36.34
2023-05-01T19:46:36.100Z,36.46
2023-05-01T19:49:03.236Z,36.12
2023-05-01T19:51:30.272Z,35.96
2023-05-01T19:53:57.306Z,36.26
2023-05-01T19:56:24.331Z,36.31
2023-05-01T19:58:51.385Z,36.17
2023-05-01T20:01:18.466Z,36.38
2023-05-01T20:03:45.639Z,36.10
2023-05-01T20:06:12.705Z,36.05
2023-05-01T20:08:39.750Z,36.44
2023-05-01T20:11:06.780Z,36.42
2023-05-01T20:13:33.835Z,36.59
2023-05-01T20:16:00.861Z,36.56
2023-05-01T20:18:27.869Z,36.98
2023-05-01T20:20:54.895Z,37.29
2023-05-01T20:23:22.394Z,37.55
2023-05-01T20:25:49.407Z,37.54
2023-05-01T20:28:16.426Z,38.03
2023-05-01T20:30:43.517Z,37.65
2023-05-01T20:33:10.705Z,38.37
2023-05-01T20:35:37.740Z,38.88
2023-05-01T20:38:04.732Z,38.86
2023-05-01T20:40:31.748Z,38.96
2023-05-01T20:42:58.767Z,39.27
2023-05-01T20:45:44.057Z,39.12
2023-05-01T20:48:12.379Z,39.55
2023-05-01T20:50:39.393Z,39.33
2023-05-01T20:53:06.390Z,39.48
2023-05-01T20:55:33.409Z,39.53
2023-05-01T20:58:00.483Z,39.17
2023-05-01T21:00:27.498Z,39.34
2023-05-01T21:02:54.650Z,39.63
2023-05-01T21:05:21.722Z,39.43
2023-05-01T21:07:48.755Z,39.17
2023-05-01T21:10:15.813Z,38.95
2023-05-01T21:12:42.869Z,39.01
2023-05-01T21:15:09.893Z,38.48
2023-05-01T21:17:36.963Z,38.72
2023-05-01T21:20:04.006Z,38.19
2023-05-01T21:22:31.000Z,38.18
2023-05-01T21:24:58.414Z,37.84
2023-05-01T21:27:25.421Z,38.33
2023-05-01T21:29:52.439Z,38.07
2023-05-01T21:32:19.676Z,37.82
2023-05-01T21:34:46.711Z,37.47
2023-05-01T21:37:14.097Z,37.59
2023-05-01T21:39:41.109Z,37.82
2023-05-01T21:42:08.295Z,38.02
2023-05-01T21:44:35.321Z,37.65
2023-05-01T21:47:02.399Z,38.08
2023-05-01T21:49:29.524Z,38.43
2023-05-01T21:51:56.539Z,38.62
2023-05-01T21:54:23.608Z,39.02
2023-05-01T21:56:50.659Z,38.93
2023-05-01T21:59:17.681Z,39.10
2023-05-01T22:01:44.739Z,39.38
2023-05-01T22:04:11.946Z,39.44
2023-05-01T22:06:39.070Z,39.86
2023-05-01T22:09:06.116Z,40.17
2023-05-01T22:11:33.185Z,39.74
2023-05-01T22:14:00.224Z,40.39
2023-05-01T22:16:27.288Z,40.23
2023-05-01T22:18:54.334Z,40.68
2023-05-01T22:21:21.380Z,40.39
2023-05-01T22:23:48.413Z,40.90
2023-05-01T22:26:15.430Z,40.95
2023-05-01T22:28:42.489Z,40.94
2023-05-01T22:31:09.488Z,40.89
2023-05-01T22:33:37.189Z,41.12
2023-05-01T22:36:06.812Z,41.30
2023-05-01T22:38:34.576Z,41.26
2023-05-01T22:41:01.583Z,41.50
2023-05-01T22:43:29.096Z,41.17
2023-05-01T22:45:56.148Z,41.58
2023-05-01T22:48:23.205Z,41.88
2023-05-01T22:50:50.260Z,41.96
2023-05-01T22:53:17.286Z,41.83
2023-05-01T22:55:44.361Z,41.97
2023-05-01T22:58:11.430Z,42.31
2023-05-01T23:00:38.472Z,41.91
2023-05-01T23:03:05.581Z,42.11
2023-05-01T23:05:32.679Z,41.85
2023-05-01T23:07:59.739Z,42.15
2023-05-01T23:10:26.765Z,42.43
2023-05-01T23:12:53.796Z,42.36
2023-05-01T23:15:20.807Z,42.35
2023-05-01T23:17:47.934Z,42.52
2023-05-01T23:20:15.002Z,42.38
2023-05-01T23:22:41.989Z,42.96
2023-05-01T23:25:09.031Z,42.65
2023-05-01T23:27:36.066Z,42.98
2023-05-01T23:30:03.303Z,42.72
2023-05-01T23:32:30.615Z,43.12
2023-05-01T23:34:57.682Z,43.23
2023-05-01T23:37:24.699Z,43.16
2023-05-01T23:39:51.744Z,43.29
2023-05-01T23:42:18.759Z,43.38
2023-05-01T23:44:45.801Z,43.28
2023-05-01T23:47:12.924Z,43.10
2023-05-01T23:49:40.049Z,43.48
2023-05-01T23:52:07.141Z,43.58
2023-05-01T23:54:34.156Z,43.76
2023-05-01T23:57:01.180Z,43.92
2023-05-01T23:59:28.188Z,44.24
